createdAt,value
2023-12-19T00:00:31.688Z,19.05
2023-12-19T00:03:01.023Z,18.90
2023-12-19T00:05:28.901Z,19.33
2023-12-19T00:07:56.920Z,14.45
2023-12-19T00:10:24.856Z,18.58
2023-12-19T00:12:52.855Z,19.50
2023-12-19T00:15:23.813Z,17.48
2023-12-19T00:17:52.076Z,16.55
2023-12-19T00:20:21.362Z,15.77
2023-12-19T00:22:49.204Z,16.70
2023-12-19T00:25:17.399Z,17.30
2023-12-19T00:27:45.342Z,17.30
2023-12-19T00:30:14.120Z,10.68
2023-12-19T00:32:42.394Z,20.40
2023-12-19T00:35:10.743Z,19.50
2023-12-19T00:37:40.029Z,18.65
2023-12-19T00:40:09.681Z,17.95
2023-12-19T00:42:37.585Z,14.15
2023-12-19T00:45:06.269Z,17.98
2023-12-19T00:47:34.676Z,15.43
2023-12-19T00:50:03.515Z,17.58
2023-12-19T00:52:31.979Z,23.52
2023-12-19T00:55:01.255Z,18.08
2023-12-19T00:57:29.127Z,20.08
2023-12-19T00:59:57.067Z,12.82
2023-12-19T01:02:25.290Z,20.80
2023-12-19T01:04:53.225Z,19.80
2023-12-19T01:07:21.077Z,14.52
2023-12-19T01:09:49.043Z,15.32
2023-12-19T01:12:19.455Z,16.52
2023-12-19T01:14:47.632Z,12.32
2023-12-19T01:17:16.017Z,20.38
2023-12-19T01:19:43.916Z,12.27
2023-12-19T01:22:11.853Z,14.52
2023-12-19T01:24:39.672Z,21.98
2023-12-19T01:27:07.535Z,16.77
2023-12-19T01:29:36.836Z,20.23
2023-12-19T01:32:05.016Z,16.00
2023-12-19T01:34:34.078Z,17.85
2023-12-19T01:37:02.027Z,13.80
2023-12-19T01:39:29.892Z,16.52
2023-12-19T01:41:58.020Z,19.92
2023-12-19T01:44:26.637Z,17.38
2023-12-19T01:46:55.870Z,14.48
2023-12-19T01:49:24.145Z,17.40
2023-12-19T01:51:52.684Z,18.98
2023-12-19T01:54:23.070Z,20.58
2023-12-19T01:56:51.228Z,14.90
2023-12-19T01:59:19.121Z,13.98
2023-12-19T02:01:47.085Z,16.67
2023-12-19T02:04:16.397Z,20.98
2023-12-19T02:06:44.440Z,19.63
2023-12-19T02:09:12.756Z,14.40
2023-12-19T02:11:40.671Z,20.50
2023-12-19T02:14:08.578Z,15.52
2023-12-19T02:16:36.447Z,12.70
2023-12-19T02:19:05.469Z,23.27
2023-12-19T02:21:34.842Z,16.77
2023-12-19T02:24:04.228Z,12.48
2023-12-19T02:26:33.470Z,13.88
2023-12-19T02:29:01.334Z,14.85
2023-12-19T02:31:29.241Z,14.32
2023-12-19T02:33:57.245Z,19.60
2023-12-19T02:36:25.362Z,10.65
2023-12-19T02:38:53.215Z,20.73
2023-12-19T02:41:22.472Z,11.30
2023-12-19T02:43:54.463Z,15.43
2023-12-19T02:46:23.548Z,14.43
2023-12-19T02:48:51.565Z,12.23
2023-12-19T02:51:20.529Z,20.85
2023-12-19T02:53:48.585Z,18.92
2023-12-19T02:56:16.455Z,17.60
2023-12-19T02:58:45.739Z,20.30
2023-12-19T03:01:13.751Z,16.08
2023-12-19T03:03:42.295Z,19.15
2023-12-19T03:06:10.558Z,19.90
2023-12-19T03:08:38.938Z,14.77
2023-12-19T03:11:06.922Z,12.63
2023-12-19T03:13:34.794Z,11.43
2023-12-19T03:16:04.080Z,18.95
2023-12-19T03:18:32.081Z,19.10
2023-12-19T03:20:59.980Z,15.20
2023-12-19T03:23:29.098Z,18.73
2023-12-19T03:25:56.914Z,16.60
2023-12-19T03:28:25.912Z,18.42
2023-12-19T03:30:53.872Z,19.58
2023-12-19T03:33:23.243Z,17.05
2023-12-19T03:35:51.123Z,23.98
2023-12-19T03:38:19.049Z,25.23
2023-12-19T03:40:46.906Z,15.85
2023-12-19T03:43:15.121Z,16.90
2023-12-19T03:45:43.022Z,20.27
2023-12-19T03:48:10.904Z,15.18
2023-12-19T03:50:40.133Z,13.32
2023-12-19T03:53:07.955Z,17.48
2023-12-19T03:55:35.773Z,16.50
2023-12-19T03:58:03.706Z,19.65
2023-12-19T04:00:31.662Z,16.17
2023-12-19T04:02:59.558Z,18.45
2023-12-19T04:05:27.444Z,16.52
2023-12-19T04:07:56.629Z,12.18
2023-12-19T04:10:24.482Z,10.68
2023-12-19T04:12:52.290Z,20.67
2023-12-19T04:15:20.244Z,15.55
2023-12-19T04:17:48.666Z,20.63
2023-12-19T04:20:16.712Z,15.65
2023-12-19T04:22:45.335Z,17.92
2023-12-19T04:25:14.835Z,18.98
2023-12-19T04:27:42.696Z,19.20
2023-12-19T04:30:11.390Z,18.63
2023-12-19T04:32:39.282Z,18.13
2023-12-19T04:35:07.521Z,14.27
2023-12-19T04:37:35.369Z,16.50
2023-12-19T04:40:04.291Z,17.40
2023-12-19T04:42:33.916Z,15.48
2023-12-19T04:45:01.837Z,8.73
2023-12-19T04:47:30.079Z,9.55
2023-12-19T04:49:58.025Z,15.88
2023-12-19T04:52:25.933Z,14.85
2023-12-19T04:54:53.853Z,14.90
2023-12-19T04:57:21.892Z,16.58
2023-12-19T04:59:51.221Z,14.82
2023-12-19T05:02:19.065Z,17.80
2023-12-19T05:04:46.931Z,17.50
2023-12-19T05:07:14.751Z,14.65
2023-12-19T05:09:42.896Z,11.48
2023-12-19T05:12:10.757Z,17.30
2023-12-19T05:14:39.326Z,8.38
2023-12-19T05:17:08.575Z,13.70
2023-12-19T05:19:43.884Z,8.77
2023-12-19T05:22:17.876Z,11.27
2023-12-19T05:24:45.778Z,15.27
2023-12-19T05:27:13.660Z,6.38
2023-12-19T05:29:42.269Z,10.98
2023-12-19T05:32:11.489Z,10.75
2023-12-19T05:34:39.480Z,8.88
2023-12-19T05:37:07.434Z,11.82
2023-12-19T05:39:35.317Z,11.10
2023-12-19T05:42:03.213Z,8.88
2023-12-19T05:44:31.068Z,11.27
2023-12-19T05:46:58.887Z,11.20
2023-12-19T05:49:28.222Z,11.68
2023-12-19T05:51:56.146Z,11.60
2023-12-19T05:54:24.202Z,7.95
2023-12-19T05:56:52.087Z,10.50
2023-12-19T05:59:19.939Z,10.95
2023-12-19T06:01:47.844Z,11.93
2023-12-19T06:04:16.222Z,11.80
2023-12-19T06:06:45.765Z,12.50
2023-12-19T06:09:14.194Z,9.18
2023-12-19T06:11:42.179Z,11.88
2023-12-19T06:14:10.547Z,7.93
2023-12-19T06:16:38.518Z,11.23
2023-12-19T06:19:06.767Z,11.60
2023-12-19T06:21:34.821Z,12.30
2023-12-19T06:24:05.022Z,10.20
2023-12-19T06:26:33.118Z,9.98
2023-12-19T06:29:01.480Z,10.38
2023-12-19T06:31:29.476Z,11.45
2023-12-19T06:33:57.750Z,9.48
2023-12-19T06:36:30.310Z,9.77
2023-12-19T06:38:58.190Z,10.55
2023-12-19T06:41:27.374Z,11.43
2023-12-19T06:43:55.253Z,10.48
2023-12-19T06:46:23.155Z,10.52
2023-12-19T06:48:51.052Z,12.65
2023-12-19T06:51:24.873Z,11.80
2023-12-19T06:53:53.773Z,10.00
2023-12-19T06:56:21.869Z,11.65
2023-12-19T06:58:51.065Z,10.60
2023-12-19T07:01:18.975Z,8.52
2023-12-19T07:03:46.890Z,9.13
2023-12-19T07:06:16.404Z,11.15
2023-12-19T07:08:46.917Z,6.93
2023-12-19T07:11:16.491Z,13.63
2023-12-19T07:13:44.409Z,16.42
2023-12-19T07:16:18.695Z,10.20
2023-12-19T07:18:47.085Z,10.13
2023-12-19T07:21:23.222Z,16.88
2023-12-19T07:23:51.779Z,12.80
2023-12-19T07:26:24.138Z,9.27
2023-12-19T07:28:53.138Z,10.93
2023-12-19T07:31:24.054Z,17.23
2023-12-19T07:33:54.118Z,14.13
2023-12-19T07:36:22.449Z,13.80
2023-12-19T07:38:50.744Z,15.13
2023-12-19T07:41:18.565Z,18.83
2023-12-19T07:43:46.633Z,15.65
2023-12-19T07:46:15.664Z,16.02
2023-12-19T07:48:45.247Z,11.88
2023-12-19T07:51:17.605Z,12.07
2023-12-19T07:53:45.575Z,10.25
2023-12-19T07:56:13.676Z,13.73
2023-12-19T07:58:41.719Z,12.68
2023-12-19T08:01:12.842Z,17.55
2023-12-19T08:03:42.950Z,15.23
2023-12-19T08:06:12.304Z,14.48
2023-12-19T08:08:40.299Z,13.70
2023-12-19T08:11:08.371Z,15.30
2023-12-19T08:13:36.587Z,16.15
2023-12-19T08:16:06.285Z,19.20
2023-12-19T08:18:34.936Z,17.02
2023-12-19T08:21:04.838Z,15.70
2023-12-19T08:23:34.135Z,12.57
2023-12-19T08:26:01.982Z,14.75
2023-12-19T08:28:29.884Z,14.27
2023-12-19T08:30:57.796Z,16.08
2023-12-19T08:33:25.974Z,17.58
2023-12-19T08:35:53.871Z,17.95
2023-12-19T08:38:21.682Z,18.23
2023-12-19T08:40:50.985Z,12.10
2023-12-19T08:43:21.020Z,14.88
2023-12-19T08:45:49.690Z,16.70
2023-12-19T08:48:18.876Z,17.48
2023-12-19T08:50:47.110Z,13.05
2023-12-19T08:53:15.077Z,13.13
2023-12-19T08:55:47.429Z,18.58
2023-12-19T08:58:16.900Z,15.30
2023-12-19T09:00:45.020Z,17.23
2023-12-19T09:03:12.972Z,13.52
2023-12-19T09:05:40.848Z,14.95
2023-12-19T09:08:09.235Z,19.45
2023-12-19T09:10:37.126Z,15.38
2023-12-19T09:13:06.249Z,19.15
2023-12-19T09:15:36.408Z,9.18
2023-12-19T09:18:05.091Z,16.63
2023-12-19T09:20:32.956Z,15.65
2023-12-19T09:23:01.875Z,13.27
2023-12-19T09:25:30.439Z,13.35
2023-12-19T09:27:58.461Z,15.30
2023-12-19T09:30:26.692Z,16.67
2023-12-19T09:32:55.995Z,16.58
2023-12-19T09:35:24.026Z,14.05
2023-12-19T09:37:51.918Z,10.30
2023-12-19T09:40:20.869Z,12.85
2023-12-19T09:42:49.446Z,15.38
2023-12-19T09:45:17.909Z,8.85
2023-12-19T09:47:55.144Z,13.52
2023-12-19T09:50:27.472Z,12.07
2023-12-19T09:52:58.673Z,17.50
2023-12-19T09:55:28.881Z,11.38
2023-12-19T09:57:58.961Z,13.68
2023-12-19T10:00:30.300Z,14.27
2023-12-19T10:02:58.318Z,16.35
2023-12-19T10:05:27.819Z,13.55
2023-12-19T10:07:58.150Z,15.50
2023-12-19T10:10:53.271Z,7.47
2023-12-19T10:16:29.258Z,12.40
2023-12-19T10:21:26.129Z,7.15
2023-12-19T10:23:54.066Z,9.50
2023-12-19T10:26:29.666Z,13.98
2023-12-19T10:28:58.761Z,13.68
2023-12-19T10:31:26.720Z,8.32
2023-12-19T10:33:57.329Z,11.73
2023-12-19T10:36:28.548Z,14.10
2023-12-19T10:38:58.265Z,12.48
2023-12-19T10:41:27.725Z,11.88
2023-12-19T10:43:57.527Z,11.63
2023-12-19T10:46:26.962Z,14.90
2023-12-19T10:48:55.900Z,13.05
2023-12-19T10:51:33.900Z,8.07
2023-12-19T10:54:09.505Z,9.98
2023-12-19T10:56:48.103Z,8.88
2023-12-19T10:59:26.261Z,8.63
2023-12-19T11:01:58.774Z,10.43
2023-12-19T11:04:30.898Z,9.80
2023-12-19T11:07:05.250Z,13.80
2023-12-19T11:09:36.055Z,8.63
2023-12-19T11:12:04.702Z,10.60
2023-12-19T11:14:32.591Z,11.90
2023-12-19T11:17:09.711Z,13.02
2023-12-19T11:19:47.189Z,11.95
2023-12-19T11:22:23.588Z,13.35
2023-12-19T11:25:02.787Z,12.05
2023-12-19T11:27:37.862Z,11.68
2023-12-19T11:30:06.999Z,7.22
2023-12-19T11:32:44.577Z,13.02
2023-12-19T11:35:14.956Z,12.43
2023-12-19T11:37:46.324Z,10.63
2023-12-19T11:40:51.334Z,12.35
2023-12-19T11:43:54.550Z,9.60
2023-12-19T11:46:24.441Z,10.82
2023-12-19T11:48:53.295Z,9.38
2023-12-19T11:51:47.837Z,9.70
2023-12-19T11:54:17.172Z,9.52
2023-12-19T11:56:46.489Z,10.32
2023-12-19T11:59:16.761Z,11.13
2023-12-19T12:01:45.740Z,10.27
2023-12-19T12:04:14.321Z,10.07
2023-12-19T12:06:43.319Z,5.38
2023-12-19T12:09:11.624Z,8.57
2023-12-19T12:11:52.967Z,9.27
2023-12-19T12:14:21.839Z,10.05
2023-12-19T12:16:49.858Z,7.28
2023-12-19T12:19:22.370Z,7.63
2023-12-19T12:21:52.416Z,6.93
2023-12-19T12:24:31.422Z,9.25
2023-12-19T12:27:12.289Z,9.52
2023-12-19T12:29:40.674Z,8.77
2023-12-19T12:32:09.781Z,5.55
2023-12-19T12:34:37.811Z,7.72
2023-12-19T12:37:06.199Z,8.45
2023-12-19T12:39:35.537Z,6.45
2023-12-19T12:42:05.018Z,7.32
2023-12-19T12:44:34.490Z,6.28
2023-12-19T12:47:02.379Z,6.55
2023-12-19T12:49:32.180Z,5.43
2023-12-19T12:54:30.094Z,5.30
2023-12-19T12:56:58.175Z,6.00
2023-12-19T12:59:26.574Z,6.10
2023-12-19T13:01:56.462Z,6.50
2023-12-19T13:04:25.037Z,7.18
2023-12-19T13:06:52.975Z,6.65
2023-12-19T13:09:22.076Z,6.32
2023-12-19T13:11:52.002Z,6.40
2023-12-19T13:14:20.095Z,6.53
2023-12-19T13:16:47.995Z,6.70
2023-12-19T13:19:19.046Z,5.20
2023-12-19T13:21:47.479Z,6.57
2023-12-19T13:24:15.924Z,6.03
2023-12-19T13:26:43.773Z,6.20
2023-12-19T13:29:11.719Z,5.93
2023-12-19T13:31:40.006Z,6.38
2023-12-19T13:34:08.047Z,4.00
2023-12-19T13:36:41.753Z,6.35
2023-12-19T13:39:13.273Z,5.25
2023-12-19T13:41:42.564Z,6.50
2023-12-19T13:44:10.591Z,6.03
2023-12-19T13:46:38.433Z,6.75
2023-12-19T13:49:06.513Z,6.72
2023-12-19T13:51:35.102Z,6.22
2023-12-19T13:54:04.439Z,6.78
2023-12-19T13:56:32.399Z,6.30
2023-12-19T13:59:00.910Z,7.25
2023-12-19T14:01:28.872Z,6.43
2023-12-19T14:03:57.056Z,7.30
2023-12-19T14:06:25.075Z,6.38
2023-12-19T14:08:52.937Z,6.53
2023-12-19T14:11:22.135Z,5.68
2023-12-19T14:13:49.991Z,6.45
2023-12-19T14:16:17.943Z,6.22
2023-12-19T14:18:49.206Z,6.00
2023-12-19T14:21:18.061Z,6.05
2023-12-19T14:23:46.061Z,6.93
2023-12-19T14:26:14.053Z,5.85
2023-12-19T14:28:43.275Z,6.25
2023-12-19T14:31:15.572Z,6.70
2023-12-19T14:33:43.892Z,6.15
2023-12-19T14:36:12.072Z,6.53
2023-12-19T14:38:41.673Z,5.78
2023-12-19T14:41:09.910Z,6.07
2023-12-19T14:43:38.616Z,7.07
2023-12-19T14:46:07.913Z,6.53
2023-12-19T14:48:35.981Z,6.75
2023-12-19T14:51:05.809Z,7.10
2023-12-19T14:53:33.868Z,6.88
2023-12-19T14:56:01.877Z,6.32
2023-12-19T14:58:29.940Z,7.22
2023-12-19T15:00:57.895Z,7.30
2023-12-19T15:03:28.415Z,7.28
2023-12-19T15:05:56.313Z,7.25
2023-12-19T15:08:24.131Z,7.03
2023-12-19T15:10:53.326Z,7.78
2023-12-19T15:13:21.511Z,7.57
2023-12-19T15:15:49.449Z,7.30
2023-12-19T15:18:23.404Z,6.97
2023-12-19T15:20:59.935Z,7.20
2023-12-19T15:23:27.824Z,6.68
2023-12-19T15:25:55.723Z,7.93
2023-12-19T15:28:23.638Z,7.32
2023-12-19T15:30:51.719Z,7.82
2023-12-19T15:33:19.859Z,8.60
2023-12-19T15:35:48.533Z,8.43
2023-12-19T15:38:17.749Z,8.23
2023-12-19T15:40:46.532Z,8.57
2023-12-19T15:43:25.695Z,12.05
2023-12-19T15:46:07.147Z,12.25
2023-12-19T15:48:35.385Z,9.05
2023-12-19T15:51:03.387Z,9.73
2023-12-19T15:53:32.592Z,10.15
2023-12-19T15:56:00.446Z,11.02
2023-12-19T15:58:28.477Z,10.15
2023-12-19T16:00:56.801Z,10.50
2023-12-19T16:03:24.837Z,9.77
2023-12-19T16:05:52.820Z,9.88
2023-12-19T16:08:20.980Z,8.65
2023-12-19T16:10:50.178Z,9.55
2023-12-19T16:13:18.061Z,9.70
2023-12-19T16:15:45.987Z,9.70
2023-12-19T16:18:14.046Z,10.25
2023-12-19T16:20:41.896Z,11.20
2023-12-19T16:23:09.737Z,10.63
2023-12-19T16:25:37.585Z,11.25
2023-12-19T16:28:11.594Z,11.02
2023-12-19T16:30:40.071Z,10.63
2023-12-19T16:33:07.974Z,11.75
2023-12-19T16:35:35.853Z,11.38
2023-12-19T16:38:05.546Z,11.75
2023-12-19T16:40:33.466Z,11.45
2023-12-19T16:43:01.338Z,11.63
2023-12-19T16:45:30.657Z,11.40
2023-12-19T16:47:58.650Z,11.63
2023-12-19T16:50:26.718Z,12.27
2023-12-19T16:52:54.692Z,12.55
2023-12-19T16:55:22.602Z,13.30
2023-12-19T16:57:50.471Z,12.55
2023-12-19T17:00:19.202Z,13.38
2023-12-19T17:02:48.878Z,13.10
2023-12-19T17:05:17.377Z,14.48
2023-12-19T17:07:45.300Z,14.43
2023-12-19T17:10:13.197Z,13.75
2023-12-19T17:12:41.165Z,15.75
2023-12-19T17:15:10.449Z,15.27
2023-12-19T17:17:38.291Z,14.90
2023-12-19T17:20:08.904Z,13.25
2023-12-19T17:22:36.754Z,12.68
2023-12-19T17:25:05.645Z,13.05
2023-12-19T17:27:35.901Z,12.93
2023-12-19T17:30:06.442Z,12.98
2023-12-19T17:32:36.442Z,13.63
2023-12-19T17:35:07.513Z,12.15
2023-12-19T17:37:36.981Z,12.80
2023-12-19T17:40:10.175Z,11.77
2023-12-19T17:42:38.932Z,10.75
2023-12-19T17:45:08.596Z,10.82
2023-12-19T17:47:36.578Z,11.55
2023-12-19T17:50:04.840Z,10.85
2023-12-19T17:52:32.687Z,10.18
2023-12-19T17:55:01.997Z,9.63
2023-12-19T17:57:29.866Z,9.35
2023-12-19T17:59:57.711Z,10.00
2023-12-19T18:02:25.547Z,9.95
2023-12-19T18:04:53.412Z,9.32
2023-12-19T18:07:21.360Z,8.77
2023-12-19T18:09:49.246Z,9.23
2023-12-19T18:12:18.496Z,8.20
2023-12-19T18:14:46.342Z,8.55
2023-12-19T18:17:14.168Z,8.00
2023-12-19T18:19:42.156Z,7.32
2023-12-19T18:22:10.226Z,8.30
2023-12-19T18:24:38.208Z,7.95
2023-12-19T18:27:07.507Z,7.30
2023-12-19T18:29:36.739Z,6.65
2023-12-19T18:32:05.073Z,6.90
2023-12-19T18:34:33.168Z,6.22
2023-12-19T18:37:01.217Z,6.75
2023-12-19T18:39:29.091Z,6.75
2023-12-19T18:41:56.939Z,6.65
2023-12-19T18:44:24.846Z,6.25
2023-12-19T18:46:54.036Z,6.38
2023-12-19T18:49:22.687Z,6.70
2023-12-19T18:51:50.606Z,6.35
2023-12-19T18:54:18.467Z,5.72
2023-12-19T18:56:46.315Z,6.40
2023-12-19T18:59:14.192Z,6.40
2023-12-19T19:01:43.871Z,6.88
2023-12-19T19:04:13.173Z,6.72
2023-12-19T19:06:43.671Z,6.45
2023-12-19T19:09:12.543Z,6.55
2023-12-19T19:11:40.851Z,6.68
2023-12-19T19:14:08.669Z,6.70
2023-12-19T19:16:36.818Z,6.60
2023-12-19T19:19:04.740Z,5.65
2023-12-19T19:21:34.725Z,6.68
2023-12-19T19:24:02.618Z,6.50
2023-12-19T19:26:30.484Z,7.32
2023-12-19T19:29:00.505Z,6.68
2023-12-19T19:31:28.457Z,6.00
2023-12-19T19:33:56.591Z,5.88
2023-12-19T19:36:25.738Z,5.28
2023-12-19T19:38:54.922Z,5.68
2023-12-19T19:41:24.358Z,4.85
2023-12-19T19:43:55.089Z,5.30
2023-12-19T19:46:23.073Z,5.05
2023-12-19T19:48:52.593Z,5.05
2023-12-19T19:51:21.881Z,5.65
2023-12-19T19:53:49.837Z,6.85
2023-12-19T19:56:19.021Z,8.27
2023-12-19T19:58:46.884Z,7.40
2023-12-19T20:01:16.567Z,6.70
2023-12-19T20:03:45.338Z,5.65
2023-12-19T20:06:13.679Z,5.97
2023-12-19T20:08:41.669Z,4.63
2023-12-19T20:11:09.603Z,4.32
2023-12-19T20:13:38.751Z,3.80
2023-12-19T20:16:07.349Z,3.83
2023-12-19T20:18:35.262Z,3.47
2023-12-19T20:21:03.232Z,2.85
2023-12-19T20:23:31.101Z,3.28
2023-12-19T20:25:59.455Z,2.75
2023-12-19T20:28:27.346Z,2.47
2023-12-19T20:30:57.243Z,2.30
2023-12-19T20:33:25.269Z,2.35
2023-12-19T20:35:53.387Z,2.25
2023-12-19T20:38:21.872Z,2.00
2023-12-19T20:40:49.989Z,2.40
2023-12-19T20:43:17.896Z,1.90
2023-12-19T20:45:47.104Z,2.10
2023-12-19T20:48:16.880Z,2.30
2023-12-19T20:50:45.144Z,2.20
2023-12-19T20:53:13.510Z,1.83
2023-12-19T20:55:42.615Z,3.03
2023-12-19T20:58:10.661Z,1.90
2023-12-19T21:00:39.915Z,1.90
2023-12-19T21:03:07.826Z,1.88
2023-12-19T21:05:37.115Z,2.00
2023-12-19T21:08:05.370Z,2.30
2023-12-19T21:10:33.182Z,1.90
2023-12-19T21:13:01.699Z,2.03
2023-12-19T21:15:31.756Z,2.35
2023-12-19T21:18:00.342Z,2.00
2023-12-19T21:20:28.278Z,2.50
2023-12-19T21:22:57.536Z,2.28
2023-12-19T21:25:25.570Z,2.53
2023-12-19T21:27:53.784Z,2.53
2023-12-19T21:30:21.788Z,2.25
2023-12-19T21:32:50.143Z,1.98
2023-12-19T21:35:18.687Z,2.00
2023-12-19T21:37:46.663Z,2.17
2023-12-19T21:40:16.266Z,2.40
2023-12-19T21:42:44.551Z,2.28
2023-12-19T21:45:12.549Z,2.00
2023-12-19T21:47:40.494Z,2.00
2023-12-19T21:50:09.175Z,2.03
2023-12-19T21:52:37.144Z,2.03
2023-12-19T21:55:06.440Z,1.80
2023-12-19T21:57:36.022Z,1.88
2023-12-19T22:00:04.045Z,1.50
2023-12-19T22:02:32.778Z,1.80
2023-12-19T22:05:00.913Z,1.70
2023-12-19T22:07:29.602Z,1.60
2023-12-19T22:10:02.324Z,1.90
2023-12-19T22:12:31.636Z,1.75
2023-12-19T22:15:01.045Z,1.90
2023-12-19T22:17:28.927Z,1.70
2023-12-19T22:19:57.207Z,2.00
2023-12-19T22:22:25.413Z,1.52
2023-12-19T22:24:53.372Z,1.58
2023-12-19T22:27:21.228Z,1.60
2023-12-19T22:29:49.384Z,1.55
2023-12-19T22:32:18.708Z,1.70
2023-12-19T22:34:46.574Z,1.60
2023-12-19T22:37:14.697Z,1.63
2023-12-19T22:39:42.682Z,1.95
2023-12-19T22:42:10.505Z,1.70
2023-12-19T22:44:38.407Z,1.77
2023-12-19T22:47:06.290Z,1.95
2023-12-19T22:49:35.561Z,1.75
2023-12-19T22:52:03.482Z,1.85
2023-12-19T22:54:33.511Z,1.80
2023-12-19T22:57:03.492Z,1.90
2023-12-19T22:59:31.372Z,2.08
2023-12-19T23:01:59.319Z,1.77
2023-12-19T23:04:27.693Z,1.83
2023-12-19T23:06:57.089Z,1.98
2023-12-19T23:09:25.178Z,2.00
2023-12-19T23:11:53.000Z,1.65
2023-12-19T23:14:23.325Z,1.60
2023-12-19T23:16:51.345Z,1.85
2023-12-19T23:19:19.369Z,1.83
2023-12-19T23:21:47.290Z,2.30
2023-12-19T23:24:16.515Z,1.95
2023-12-19T23:26:44.357Z,2.63
2023-12-19T23:29:12.517Z,2.28
2023-12-19T23:31:42.614Z,1.88
2023-12-19T23:34:12.017Z,2.47
2023-12-19T23:36:40.179Z,2.22
2023-12-19T23:39:09.071Z,1.70
2023-12-19T23:41:38.495Z,2.33
2023-12-19T23:44:06.552Z,2.17
2023-12-19T23:46:34.532Z,2.60
2023-12-19T23:49:02.632Z,2.65
2023-12-19T23:51:30.528Z,2.40
2023-12-19T23:53:58.374Z,2.20
2023-12-19T23:56:26.242Z,2.00
2023-12-19T23:58:55.458Z,2.40
